100LL.CA
Aviation Fuel Pricing for Canadians
Please upgrade your browser - Tested with IE9, FireFox, Chrome, Safari

Fuel Airports Other Help
Prices Economy Info List METAR/TAF Kneeboard Help

Enter a list of
Airport Idents:
Sort Method: As Entered    By Ident   

CYVR
METAR CYVR 161300Z 31007KT 15SM OVC014 09/09 A3022 RMK SC8 SLP236
TAF CYVR 161138Z 1612/1718 28007KT P6SM FEW007 SCT015 BKN030 TEMPO 1612/1616 5SM -DZ BR BKN007 OVC015 FM161600 28008KT P6SM FEW006 SCT015 BKN030 TEMPO 1616/1619 SCT006 OVC015 FM162100 28010KT P6SM FEW020 SCT050 TEMPO 1703/1709 BKN020 BECMG 1703/1705 VRB03KT FM170900 08005KT P6SM FEW025 SCT050 RMK NXT FCST BY 161500Z
CYXX
METAR CYXX 161334Z 00000KT 5SM DZ OVC009 10/10 A3022 RMK ST8 SLP238
TAF AMD CYXX 161314Z 1613/1712 VRB03KT P6SM SCT003 OVC020 TEMPO 1613/1617 5SM -DZ BR BKN003 OVC010 FM161700 03006KT P6SM SCT012 BKN040 TEMPO 1617/1621 5SM -DZ BR BKN012 BKN040 FM162100 03010KT P6SM FEW012 SCT040 RMK NXT FCST BY 161800Z
KBLI
METAR KBLI 161335Z AUTO 11003KT 2SM BR FEW002 BKN019 OVC025 11/08 A3022 RMK AO2 T01060083
TAF KBLI 161259Z 1613/1712 VRB04KT 5SM BR OVC010 TEMPO 1613/1615 2SM BR OVC002 FM161800 36004KT P6SM BKN020 FM162000 36007KT P6SM SKC FM162200 01005KT P6SM SKC


Please Send Updates!

Desktop Version ]  [ Mobile Version ]  [ Disclaimer ]